Time;durP1;ratioP1;P1;durP2;ratioP2;P2;SDS_P1;SDS_P2;PMS_P1;PMS_P2;Temp;Humidity;BMP_temperature;BMP_pressure;BME280_temperature;BME280_humidity;BME280_pressure;Samples;Min_cycle;Max_cycle;Signal;HPM_P1;HPM_P2
2022/08/21 00:00:17;;;;;;;8.23;3.17;;;;;;;20.38;nan;-24383.88;4939785;29;20254;-81
2022/08/21 00:03:04;;;;;;;6.00;3.17;;;;;;;20.45;nan;-24385.69;4921871;29;20228;-80
2022/08/21 00:05:31;;;;;;;6.25;3.10;;;;;;;20.19;nan;-24378.75;4939394;29;20265;-79
2022/08/21 00:07:57;;;;;;;5.68;3.03;;;;;;;20.40;nan;-24384.28;4939753;29;20170;-80
2022/08/21 00:10:23;;;;;;;5.80;3.30;;;;;;;20.37;nan;-24383.47;4921691;29;20281;-80
2022/08/21 00:12:49;;;;;;;5.25;3.08;;;;;;;20.12;nan;-24376.78;4939336;29;20215;-80
2022/08/21 00:15:19;;;;;;;10.88;3.92;;;;;;;20.38;nan;-24383.88;4939854;29;20186;-80
2022/08/21 00:17:44;;;;;;;7.28;3.60;;;;;;;20.51;nan;-24387.34;4938671;29;20175;-80
2022/08/21 00:20:13;;;;;;;6.55;3.28;;;;;;;20.54;nan;-24388.31;4937989;29;20270;-80
2022/08/21 00:22:39;;;;;;;6.07;3.20;;;;;;;20.51;nan;-24387.50;4938711;29;20222;-80
2022/08/21 00:25:07;;;;;;;4.82;3.05;;;;;;;20.29;nan;-24381.50;4938776;29;20213;-81
2022/08/21 00:27:33;;;;;;;6.72;3.35;;;;;;;20.47;nan;-24386.25;4938005;29;20714;-79
2022/08/21 00:29:59;;;;;;;6.78;3.83;;;;;;;20.62;nan;-24390.53;4938090;29;20314;-80
2022/08/21 00:32:26;;;;;;;10.88;3.53;;;;;;;20.43;nan;-24385.13;4920638;29;20210;-82
2022/08/21 00:34:52;;;;;;;7.88;3.90;;;;;;;20.46;nan;-24385.97;4938010;29;20241;-82
2022/08/21 00:37:18;;;;;;;8.15;3.20;;;;;;;20.43;nan;-24385.28;4938209;29;20269;-79
2022/08/21 00:39:44;;;;;;;7.50;3.08;;;;;;;20.65;nan;-24391.22;4939035;29;20635;-81
2022/08/21 00:42:14;;;;;;;4.75;3.05;;;;;;;20.64;nan;-24390.97;4938404;29;20230;-82
2022/08/21 00:44:42;;;;;;;8.65;3.15;;;;;;;20.54;nan;-24388.19;4921482;29;20737;-80
2022/08/21 00:47:08;;;;;;;6.65;3.67;;;;;;;20.34;nan;-24382.78;4939081;29;20269;-79
2022/08/21 00:49:33;;;;;;;5.75;3.13;;;;;;;20.54;nan;-24388.31;4938415;29;20238;-79
2022/08/21 00:52:01;;;;;;;8.30;3.33;;;;;;;20.53;nan;-24387.91;4938402;29;20179;-79
2022/08/21 00:54:30;;;;;;;7.68;3.33;;;;;;;20.68;nan;-24392.19;4938030;29;20209;-79
2022/08/21 00:57:03;;;;;;;5.68;2.80;;;;;;;20.22;nan;-24379.56;4938194;29;20221;-80
2022/08/21 00:59:32;;;;;;;6.38;3.33;;;;;;;20.40;nan;-24384.28;4937777;29;20261;-80
2022/08/21 01:01:58;;;;;;;5.35;3.38;;;;;;;20.72;nan;-24393.19;4936447;29;20235;-79
2022/08/21 01:04:24;;;;;;;5.20;3.03;;;;;;;20.29;nan;-24381.38;4937842;29;20648;-79
2022/08/21 01:06:51;;;;;;;5.75;3.35;;;;;;;20.44;nan;-24385.41;4937135;29;20175;-79
2022/08/21 01:09:17;;;;;;;7.65;3.53;;;;;;;20.65;nan;-24391.22;4938155;29;20579;-78
2022/08/21 01:11:43;;;;;;;6.47;3.63;;;;;;;20.62;nan;-24390.53;4937663;29;20167;-79
2022/08/21 01:14:11;;;;;;;5.70;3.10;;;;;;;20.88;nan;-24397.63;4937085;29;20651;-79
2022/08/21 01:16:38;;;;;;;8.35;3.80;;;;;;;20.48;nan;-24386.66;4937235;29;20241;-80
2022/08/21 01:19:06;;;;;;;7.28;3.03;;;;;;;20.69;nan;-24392.47;4920277;29;20213;-80
2022/08/21 01:21:32;;;;;;;5.38;3.05;;;;;;;20.38;nan;-24383.75;4920298;29;20277;-79
2022/08/21 01:23:57;;;;;;;4.90;2.88;;;;;;;20.50;nan;-24387.22;4920181;29;20188;-80
2022/08/21 01:26:27;;;;;;;6.82;3.60;;;;;;;20.78;nan;-24394.69;4937387;29;20553;-79
2022/08/21 01:29:02;;;;;;;9.63;3.25;;;;;;;20.90;nan;-24398.03;4936102;29;20241;-79
2022/08/21 01:31:29;;;;;;;5.30;3.05;;;;;;;20.85;nan;-24396.66;4936118;29;20629;-79
2022/08/21 01:33:56;;;;;;;7.18;3.08;;;;;;;21.04;nan;-24402.06;4920563;29;20557;-80
2022/08/21 01:36:22;;;;;;;5.97;3.03;;;;;;;20.81;nan;-24395.66;4936915;29;20167;-79
2022/08/21 01:38:48;;;;;;;5.20;2.97;;;;;;;20.81;nan;-24395.66;4919791;29;20277;-80
2022/08/21 01:41:15;;;;;;;4.95;2.50;;;;;;;20.81;nan;-24395.66;4936191;29;20622;-79
2022/08/21 01:43:42;;;;;;;6.28;3.50;;;;;;;20.97;nan;-24400.13;4936225;29;20201;-80
2022/08/21 01:46:08;;;;;;;6.15;3.33;;;;;;;20.80;nan;-24395.25;4920002;29;20195;-79
2022/08/21 01:48:34;;;;;;;6.82;3.75;;;;;;;20.82;nan;-24395.81;4936657;29;20706;-80
2022/08/21 01:50:59;;;;;;;10.25;3.92;;;;;;;20.77;nan;-24394.56;4936705;29;20236;-80
2022/08/21 01:53:25;;;;;;;6.72;3.70;;;;;;;20.68;nan;-24392.19;4935661;29;20650;-79
2022/08/21 01:55:51;;;;;;;7.78;3.25;;;;;;;20.86;nan;-24397.06;4936950;29;20234;-80
2022/08/21 01:58:16;;;;;;;8.82;3.63;;;;;;;20.70;nan;-24392.75;4936095;29;20182;-80
2022/08/21 02:00:42;;;;;;;7.65;4.07;;;;;;;20.76;nan;-24394.28;4936628;29;20167;-80
2022/08/21 02:03:07;;;;;;;8.93;3.65;;;;;;;20.70;nan;-24392.63;4919259;29;20182;-79
2022/08/21 02:05:33;;;;;;;6.45;3.65;;;;;;;20.66;nan;-24391.50;4935545;29;20255;-81
2022/08/21 02:07:58;;;;;;;7.15;4.10;;;;;;;20.89;nan;-24397.75;4936182;29;20659;-80
2022/08/21 02:10:30;;;;;;;5.72;3.53;;;;;;;20.68;nan;-24392.06;4936578;29;20661;-80
2022/08/21 02:12:57;;;;;;;9.38;4.45;;;;;;;21.04;nan;-24401.91;4935630;29;20206;-79
2022/08/21 02:15:22;;;;;;;6.10;3.53;;;;;;;20.79;nan;-24395.13;4918114;29;20234;-80
2022/08/21 02:17:55;;;;;;;9.63;4.25;;;;;;;20.98;nan;-24400.38;4935718;29;20194;-80
2022/08/21 02:20:27;;;;;;;11.07;4.10;;;;;;;20.95;nan;-24399.56;4935913;29;20225;-80
2022/08/21 02:22:53;;;;;;;11.90;4.00;;;;;;;20.85;nan;-24396.78;4936036;29;20264;-79
2022/08/21 02:25:20;;;;;;;9.27;4.22;;;;;;;20.91;nan;-24398.44;4935475;29;20214;-79
2022/08/21 02:27:47;;;;;;;6.40;3.88;;;;;;;21.14;nan;-24404.84;4934991;29;20174;-79
2022/08/21 02:30:25;;;;;;;6.85;4.15;;;;;;;20.96;nan;-24399.84;4935291;29;20646;-79
2022/08/21 02:32:51;;;;;;;6.53;4.50;;;;;;;21.18;nan;-24405.66;4935090;29;20182;-79
2022/08/21 02:35:18;;;;;;;9.60;4.55;;;;;;;20.96;nan;-24399.69;4935900;29;20591;-79
2022/08/21 02:37:54;;;;;;;6.65;3.58;;;;;;;21.08;nan;-24403.03;4934893;29;20182;-80
2022/08/21 02:40:22;;;;;;;8.93;4.40;;;;;;;21.12;nan;-24404.13;4918397;29;20205;-80
2022/08/21 02:42:48;;;;;;;6.30;3.97;;;;;;;20.99;nan;-24400.53;4935647;29;20718;-79
2022/08/21 02:45:14;;;;;;;11.70;4.63;;;;;;;21.38;nan;-24411.34;4916634;29;20195;-79
2022/08/21 02:47:47;;;;;;;7.30;4.35;;;;;;;21.37;nan;-24411.06;4935436;29;20225;-79
2022/08/21 02:50:12;;;;;;;10.32;4.60;;;;;;;21.00;nan;-24400.94;4934986;29;20618;-79
2022/08/21 02:52:38;;;;;;;6.75;4.18;;;;;;;21.21;nan;-24406.63;4935250;29;20175;-79
2022/08/21 02:55:04;;;;;;;11.50;4.28;;;;;;;21.27;nan;-24408.16;4935177;29;20194;-79
2022/08/21 02:57:32;;;;;;;6.78;4.10;;;;;;;21.19;nan;-24405.94;4934932;29;20549;-79
2022/08/21 02:59:57;;;;;;;8.18;4.22;;;;;;;20.82;nan;-24395.81;4935291;29;20278;-80
2022/08/21 03:02:23;;;;;;;10.95;4.20;;;;;;;21.00;nan;-24400.81;4935440;29;20756;-78
2022/08/21 03:04:48;;;;;;;7.05;3.83;;;;;;;20.84;nan;-24396.50;4935595;29;20308;-79
2022/08/21 03:07:15;;;;;;;10.48;5.13;;;;;;;20.75;nan;-24394.00;4936393;29;20257;-81
2022/08/21 03:09:40;;;;;;;9.45;4.68;;;;;;;20.61;nan;-24390.25;4935571;29;20650;-79
2022/08/21 03:12:06;;;;;;;10.80;4.90;;;;;;;20.62;nan;-24390.53;4935543;29;20246;-79
2022/08/21 03:14:31;;;;;;;8.32;4.57;;;;;;;20.66;nan;-24391.50;4951180;28;20178;-78
2022/08/21 03:16:56;;;;;;;10.07;4.25;;;;;;;20.54;nan;-24388.19;4936914;29;20249;-81
2022/08/21 03:19:22;;;;;;;10.07;3.90;;;;;;;20.88;nan;-24397.47;4937144;29;20245;-83
2022/08/21 03:21:47;;;;;;;7.72;4.25;;;;;;;20.86;nan;-24397.06;4936431;29;20225;-80
2022/08/21 03:24:14;;;;;;;7.85;3.90;;;;;;;20.73;nan;-24393.44;4934248;28;20198;-83
2022/08/21 03:26:39;;;;;;;9.43;5.20;;;;;;;20.36;nan;-24383.19;4937544;29;20182;-82
2022/08/21 03:29:07;;;;;;;11.10;4.72;;;;;;;20.37;nan;-24383.59;4935812;29;20185;-82
2022/08/21 03:31:33;;;;;;;6.93;4.05;;;;;;;20.43;nan;-24385.13;4936743;29;20278;-81
2022/08/21 03:33:59;;;;;;;9.25;4.10;;;;;;;20.57;nan;-24389.16;4927170;29;20194;-81
2022/08/21 03:36:24;;;;;;;8.85;4.63;;;;;;;20.56;nan;-24388.75;4936882;29;20182;-81
2022/08/21 03:38:50;;;;;;;9.25;4.05;;;;;;;20.38;nan;-24383.75;4919438;29;20213;-81
2022/08/21 03:41:15;;;;;;;7.75;4.28;;;;;;;20.41;nan;-24384.72;4936779;29;20207;-80
2022/08/21 03:43:41;;;;;;;7.30;3.90;;;;;;;20.52;nan;-24387.63;4936845;29;20186;-81
2022/08/21 03:46:06;;;;;;;9.52;4.75;;;;;;;20.61;nan;-24390.13;4950884;29;20650;-82
2022/08/21 03:48:34;;;;;;;13.88;4.90;;;;;;;20.27;nan;-24380.97;4919360;29;20190;-81
2022/08/21 03:50:59;;;;;;;10.68;4.75;;;;;;;20.70;nan;-24392.75;4919569;29;20198;-80
2022/08/21 03:53:25;;;;;;;11.32;4.90;;;;;;;20.65;nan;-24391.38;4937300;29;20186;-82
2022/08/21 03:55:52;;;;;;;10.38;4.32;;;;;;;20.70;nan;-24392.63;4919210;29;20186;-81
2022/08/21 03:58:20;;;;;;;7.45;4.30;;;;;;;20.75;nan;-24394.00;4919308;29;20617;-81
2022/08/21 04:00:49;;;;;;;7.75;3.85;;;;;;;20.74;nan;-24393.72;4919534;29;20194;-81
2022/08/21 04:03:16;;;;;;;7.70;3.80;;;;;;;20.92;nan;-24398.59;4919367;29;20254;-81
2022/08/21 04:05:42;;;;;;;7.80;3.55;;;;;;;20.75;nan;-24393.88;4919208;29;20343;-80
2022/08/21 04:08:08;;;;;;;9.05;3.85;;;;;;;20.84;nan;-24396.50;4919845;29;20230;-84
2022/08/21 04:10:36;;;;;;;12.02;4.35;;;;;;;20.81;nan;-24395.66;4918738;29;20194;-80
2022/08/21 04:13:02;;;;;;;7.28;3.92;;;;;;;20.85;nan;-24396.78;4937112;29;20210;-80
2022/08/21 04:15:28;;;;;;;9.15;4.25;;;;;;;20.92;nan;-24398.72;4936486;29;20385;-82
2022/08/21 04:17:54;;;;;;;7.32;4.18;;;;;;;20.96;nan;-24399.69;4919370;29;20194;-85
2022/08/21 04:20:21;;;;;;;8.50;4.40;;;;;;;20.64;nan;-24390.97;4936282;29;20270;-83
2022/08/21 04:22:48;;;;;;;6.75;4.13;;;;;;;20.86;nan;-24396.91;4936551;29;20308;-80
2022/08/21 04:25:15;;;;;;;9.30;4.93;;;;;;;20.70;nan;-24392.75;4919467;29;20179;-80
2022/08/21 04:27:40;;;;;;;8.85;4.43;;;;;;;20.98;nan;-24400.38;4919065;29;20190;-82
2022/08/21 04:30:07;;;;;;;7.45;4.18;;;;;;;20.94;nan;-24399.28;4951299;29;20179;-81
2022/08/21 04:32:32;;;;;;;9.80;4.18;;;;;;;21.02;nan;-24401.50;4919681;29;20175;-80
2022/08/21 04:35:04;;;;;;;8.40;4.60;;;;;;;21.00;nan;-24400.94;4936505;29;20245;-83
2022/08/21 04:37:30;;;;;;;7.03;3.53;;;;;;;20.95;nan;-24399.56;4939862;29;20175;-81
2022/08/21 04:39:59;;;;;;;10.18;3.78;;;;;;;21.03;nan;-24401.78;4923047;29;20175;-81
2022/08/21 04:42:26;;;;;;;6.25;3.92;;;;;;;20.84;nan;-24396.50;4922212;29;20257;-84
2022/08/21 04:44:52;;;;;;;5.63;3.58;;;;;;;21.01;nan;-24401.09;4921583;29;20288;-81
2022/08/21 04:47:18;;;;;;;10.27;4.28;;;;;;;21.08;nan;-24403.03;4935660;29;20221;-80
2022/08/21 04:49:44;;;;;;;6.82;3.92;;;;;;;20.93;nan;-24399.00;4939303;29;20191;-81
2022/08/21 04:52:11;;;;;;;6.75;3.65;;;;;;;20.86;nan;-24396.91;4939764;29;20643;-81
2022/08/21 04:54:37;;;;;;;7.95;4.47;;;;;;;20.95;nan;-24399.56;4922446;29;20277;-82
2022/08/21 04:57:10;;;;;;;6.18;3.50;;;;;;;20.71;nan;-24393.03;4920511;29;20182;-81
2022/08/21 04:59:39;;;;;;;6.00;3.42;;;;;;;20.72;nan;-24393.19;4933871;29;20238;-80
2022/08/21 05:02:07;;;;;;;6.50;3.72;;;;;;;20.80;nan;-24395.25;4922521;29;20222;-81
2022/08/21 05:04:35;;;;;;;5.60;3.42;;;;;;;20.88;nan;-24397.47;4939342;29;20179;-83
2022/08/21 05:07:05;;;;;;;11.45;3.70;;;;;;;20.81;nan;-24395.66;4921860;29;20194;-81
2022/08/21 05:09:32;;;;;;;5.25;3.35;;;;;;;21.10;nan;-24403.56;4939385;29;20175;-84
2022/08/21 05:11:58;;;;;;;8.05;3.83;;;;;;;20.96;nan;-24399.84;4921839;29;20190;-82
2022/08/21 05:14:26;;;;;;;7.88;4.10;;;;;;;20.89;nan;-24397.75;4921808;29;20187;-82
2022/08/21 05:16:51;;;;;;;6.57;4.20;;;;;;;21.08;nan;-24403.16;4922384;29;20226;-82
2022/08/21 05:19:16;;;;;;;7.10;3.60;;;;;;;21.11;nan;-24404.00;4939694;29;20253;-82
2022/08/21 05:21:44;;;;;;;8.07;4.15;;;;;;;20.97;nan;-24400.13;4939451;29;20241;-82
2022/08/21 05:24:11;;;;;;;8.20;3.58;;;;;;;21.12;nan;-24404.13;4939766;29;20242;-83
2022/08/21 05:26:38;;;;;;;6.50;3.55;;;;;;;21.08;nan;-24403.03;4939329;29;20198;-81
2022/08/21 05:29:04;;;;;;;7.20;3.42;;;;;;;21.18;nan;-24405.66;4940376;29;20587;-84
2022/08/21 05:31:29;;;;;;;7.95;3.42;;;;;;;21.12;nan;-24404.28;4922664;29;20187;-82
2022/08/21 05:33:55;;;;;;;7.57;4.32;;;;;;;21.33;nan;-24409.97;4938496;29;20689;-82
2022/08/21 05:36:21;;;;;;;7.80;3.70;;;;;;;21.42;nan;-24412.47;4922266;29;20241;-81
2022/08/21 05:38:46;;;;;;;6.28;3.78;;;;;;;21.27;nan;-24408.28;4922264;29;20281;-82
2022/08/21 05:41:12;;;;;;;6.15;3.78;;;;;;;21.17;nan;-24405.53;4939989;29;20210;-81
2022/08/21 05:43:37;;;;;;;7.47;3.65;;;;;;;21.28;nan;-24408.44;4939570;29;20592;-83
2022/08/21 05:46:04;;;;;;;7.05;3.92;;;;;;;21.39;nan;-24411.63;4922141;29;20183;-81
2022/08/21 05:48:30;;;;;;;8.48;4.18;;;;;;;21.44;nan;-24413.00;4922094;29;20611;-81
2022/08/21 05:50:56;;;;;;;8.32;3.60;;;;;;;21.64;nan;-24418.41;4953477;28;20194;-82
2022/08/21 05:53:23;;;;;;;7.00;3.60;;;;;;;21.48;nan;-24413.97;4938400;29;20223;-81
2022/08/21 05:55:49;;;;;;;11.65;3.30;;;;;;;21.63;nan;-24418.13;4938753;29;20178;-82
2022/08/21 05:58:17;;;;;;;6.28;3.97;;;;;;;21.90;nan;-24425.63;4921914;29;20200;-83
2022/08/21 06:00:47;;;;;;;8.18;3.58;;;;;;;21.63;nan;-24418.00;4938140;29;20178;-83
2022/08/21 06:03:19;;;;;;;7.18;4.07;;;;;;;21.93;nan;-24426.44;4936875;29;20260;-81
2022/08/21 06:05:45;;;;;;;6.03;3.80;;;;;;;21.64;nan;-24418.28;4920148;29;20186;-80
2022/08/21 06:08:11;;;;;;;8.43;3.85;;;;;;;22.01;nan;-24428.66;4951740;29;20199;-82
2022/08/21 06:10:37;;;;;;;6.13;3.92;;;;;;;22.11;nan;-24431.16;4937801;29;20265;-80
2022/08/21 06:13:03;;;;;;;7.07;3.97;;;;;;;21.75;nan;-24421.47;4901204;29;20480;-81
2022/08/21 06:15:28;;;;;;;9.20;3.92;;;;;;;21.96;nan;-24427.16;4922397;29;20317;-83
2022/08/21 06:17:54;;;;;;;9.10;4.53;;;;;;;22.07;nan;-24430.03;4919673;29;20266;-81
2022/08/21 06:20:20;;;;;;;5.93;3.65;;;;;;;21.95;nan;-24427.00;4919123;29;20313;-80
2022/08/21 06:22:45;;;;;;;7.95;3.90;;;;;;;21.90;nan;-24425.63;4937128;29;20619;-80
2022/08/21 06:25:11;;;;;;;6.65;3.83;;;;;;;21.95;nan;-24427.00;4937611;29;20182;-80
2022/08/21 06:27:37;;;;;;;8.00;3.80;;;;;;;21.97;nan;-24427.41;4937385;29;20175;-80
2022/08/21 06:30:05;;;;;;;6.97;3.83;;;;;;;21.90;nan;-24425.63;4919751;29;20182;-80
2022/08/21 06:32:30;;;;;;;7.45;3.83;;;;;;;21.91;nan;-24425.75;4935872;29;20189;-81
2022/08/21 06:34:56;;;;;;;9.70;3.90;;;;;;;21.77;nan;-24422.00;4936829;29;20171;-81
2022/08/21 06:37:22;;;;;;;7.88;4.40;;;;;;;21.90;nan;-24425.63;4936643;29;20182;-80
2022/08/21 06:39:48;;;;;;;8.93;4.05;;;;;;;22.27;nan;-24435.59;4936087;29;20190;-81
2022/08/21 06:42:15;;;;;;;9.30;3.67;;;;;;;22.41;nan;-24439.47;4919737;29;20203;-82
2022/08/21 06:44:41;;;;;;;9.48;3.95;;;;;;;22.22;nan;-24434.34;4936828;29;20182;-81
2022/08/21 06:47:06;;;;;;;7.95;4.38;;;;;;;22.23;nan;-24434.63;4936532;29;20181;-81
2022/08/21 06:49:31;;;;;;;7.32;3.67;;;;;;;22.08;nan;-24430.31;4936709;29;20182;-80
2022/08/21 06:51:57;;;;;;;9.43;4.63;;;;;;;22.40;nan;-24439.19;4936563;29;20206;-82
2022/08/21 06:54:22;;;;;;;6.97;4.03;;;;;;;22.78;nan;-24449.56;4919424;29;20634;-81
2022/08/21 06:56:48;;;;;;;12.48;4.70;;;;;;;22.58;nan;-24444.16;4936459;29;20634;-81
2022/08/21 06:59:13;;;;;;;5.85;3.70;;;;;;;22.67;nan;-24446.66;4935253;29;20266;-80
2022/08/21 07:01:39;;;;;;;7.57;4.18;;;;;;;22.60;nan;-24444.56;4918599;29;20210;-81
2022/08/21 07:04:04;;;;;;;9.77;4.15;;;;;;;22.96;nan;-24454.41;4918868;29;20179;-80
2022/08/21 07:06:30;;;;;;;9.95;4.20;;;;;;;23.06;nan;-24457.31;4918630;29;20198;-81
2022/08/21 07:08:55;;;;;;;8.45;4.55;;;;;;;23.29;nan;-24463.66;4935897;29;20218;-80
2022/08/21 07:11:23;;;;;;;11.85;5.53;;;;;;;23.44;nan;-24467.53;4935730;29;20183;-80
2022/08/21 07:13:51;;;;;;;14.23;6.32;;;;;;;23.12;nan;-24458.94;4949758;28;20573;-80
2022/08/21 07:16:16;;;;;;;10.25;5.35;;;;;;;23.45;nan;-24467.78;4935087;29;20326;-80
2022/08/21 07:18:42;;;;;;;11.10;5.10;;;;;;;23.53;nan;-24470.00;4935614;29;20178;-80
2022/08/21 07:21:08;;;;;;;9.15;4.53;;;;;;;23.18;nan;-24460.47;4935450;29;20266;-81
2022/08/21 07:23:39;;;;;;;7.45;3.75;;;;;;;23.33;nan;-24464.75;4935644;29;20262;-80
2022/08/21 07:26:05;;;;;;;7.85;4.32;;;;;;;23.47;nan;-24468.50;4935446;29;20175;-80
2022/08/21 07:28:32;;;;;;;7.70;4.70;;;;;;;23.71;nan;-24474.97;4918207;29;20171;-80
2022/08/21 07:30:59;;;;;;;7.88;4.50;;;;;;;23.44;nan;-24467.66;4916932;29;20563;-80
2022/08/21 07:33:26;;;;;;;7.25;3.88;;;;;;;23.56;nan;-24470.84;4935163;29;20182;-80
2022/08/21 07:35:52;;;;;;;7.35;4.68;;;;;;;23.93;nan;-24481.06;4918104;29;20186;-80
2022/08/21 07:38:18;;;;;;;7.50;3.97;;;;;;;24.08;nan;-24485.19;4917616;29;20297;-80
2022/08/21 07:40:45;;;;;;;7.25;4.05;;;;;;;24.34;nan;-24492.22;4934935;29;20174;-80
2022/08/21 07:43:11;;;;;;;7.93;4.10;;;;;;;24.56;nan;-24498.16;4934730;29;20225;-80
2022/08/21 07:45:37;;;;;;;8.57;4.35;;;;;;;24.42;nan;-24494.44;4949672;29;20650;-80
2022/08/21 07:48:03;;;;;;;10.25;4.40;;;;;;;24.40;nan;-24493.88;4935155;29;20237;-80
2022/08/21 07:50:29;;;;;;;9.77;4.90;;;;;;;24.71;nan;-24502.16;4934788;29;20193;-81
2022/08/21 07:52:54;;;;;;;8.10;3.92;;;;;;;24.29;nan;-24490.72;4950022;29;20182;-80
2022/08/21 07:55:21;;;;;;;7.13;3.95;;;;;;;24.72;nan;-24502.41;4935132;29;20640;-80
2022/08/21 07:57:47;;;;;;;6.20;4.28;;;;;;;24.55;nan;-24497.88;4949558;29;20258;-80
2022/08/21 08:00:17;;;;;;;6.30;3.58;;;;;;;24.57;nan;-24498.41;4935382;29;20262;-79
2022/08/21 08:02:49;;;;;;;7.43;4.05;;;;;;;24.76;nan;-24503.66;4917403;29;20213;-80
2022/08/21 08:05:15;;;;;;;9.57;4.15;;;;;;;24.71;nan;-24502.28;4917830;29;20182;-80
2022/08/21 08:07:41;;;;;;;5.75;3.50;;;;;;;24.25;nan;-24489.75;4917789;29;20179;-80
2022/08/21 08:10:08;;;;;;;5.97;3.35;;;;;;;23.95;nan;-24481.47;4934686;29;20530;-80
2022/08/21 08:12:35;;;;;;;7.75;4.05;;;;;;;24.10;nan;-24485.59;4937940;29;20669;-79
2022/08/21 08:15:01;;;;;;;11.20;6.00;;;;;;;23.88;nan;-24479.66;4921169;29;20638;-79
2022/08/21 08:17:27;;;;;;;10.73;4.57;;;;;;;23.87;nan;-24479.25;4921086;29;20197;-78
2022/08/21 08:19:53;;;;;;;8.07;3.88;;;;;;;23.78;nan;-24477.03;4938242;29;20306;-79
2022/08/21 08:22:23;;;;;;;8.52;3.60;;;;;;;23.62;nan;-24472.63;4921115;29;20210;-79
2022/08/21 08:24:50;;;;;;;5.18;3.53;;;;;;;23.46;nan;-24468.22;4938537;29;20218;-79
2022/08/21 08:27:16;;;;;;;9.02;4.70;;;;;;;23.61;nan;-24472.34;4937233;29;20167;-79
2022/08/21 08:29:42;;;;;;;10.75;5.30;;;;;;;23.39;nan;-24466.28;4919025;29;20218;-79
2022/08/21 08:32:08;;;;;;;8.75;4.53;;;;;;;23.28;nan;-24463.25;4938110;29;20208;-79
2022/08/21 08:34:35;;;;;;;12.63;5.47;;;;;;;23.32;nan;-24464.47;4921505;29;20261;-78
2022/08/21 08:37:01;;;;;;;9.93;5.45;;;;;;;23.49;nan;-24468.91;4921076;29;20198;-78
2022/08/21 08:39:26;;;;;;;12.40;5.97;;;;;;;22.73;nan;-24448.31;4937849;29;20527;-79
2022/08/21 08:42:03;;;;;;;11.98;6.30;;;;;;;23.47;nan;-24468.34;4938341;29;20205;-79
2022/08/21 08:44:29;;;;;;;12.95;5.90;;;;;;;23.52;nan;-24469.88;4938271;29;20182;-78
2022/08/21 08:46:57;;;;;;;15.65;6.85;;;;;;;23.76;nan;-24476.34;4921112;29;20178;-79
2022/08/21 08:49:24;;;;;;;25.42;11.68;;;;;;;23.76;nan;-24476.50;4920489;29;20191;-78
2022/08/21 08:52:07;;;;;;;20.63;10.80;;;;;;;23.81;nan;-24477.59;4937831;29;20247;-78
2022/08/21 08:54:42;;;;;;;17.75;8.80;;;;;;;23.59;nan;-24471.81;4938094;29;20194;-77
2022/08/21 08:57:14;;;;;;;12.93;7.45;;;;;;;23.91;nan;-24480.34;4937597;29;20229;-78
2022/08/21 08:59:44;;;;;;;14.60;7.63;;;;;;;23.98;nan;-24482.28;4937515;29;20658;-78
2022/08/21 09:02:12;;;;;;;9.30;5.35;;;;;;;24.18;nan;-24487.81;4952048;29;20210;-78
2022/08/21 09:04:38;;;;;;;6.13;3.70;;;;;;;24.22;nan;-24488.91;4937540;29;20185;-79
2022/08/21 09:07:31;;;;;;;8.35;3.75;;;;;;;24.48;nan;-24496.09;4952042;28;20175;-79
2022/08/21 09:10:28;;;;;;;5.25;3.20;;;;;;;24.70;nan;-24501.88;4937340;29;20167;-78
2022/08/21 09:13:03;;;;;;;6.38;3.35;;;;;;;24.86;nan;-24506.28;4919553;29;20187;-79
2022/08/21 09:15:53;;;;;;;5.82;3.25;;;;;;;25.06;nan;-24511.78;4937679;29;20606;-78
2022/08/21 09:18:47;;;;;;;5.25;3.40;;;;;;;25.47;nan;-24522.94;4937601;29;20257;-79
2022/08/21 09:21:24;;;;;;;6.35;3.20;;;;;;;25.51;nan;-24524.16;4936705;29;20179;-79
2022/08/21 09:24:10;;;;;;;6.22;3.33;;;;;;;25.50;nan;-24523.75;4936263;29;20210;-79
2022/08/21 09:26:51;;;;;;;6.65;3.65;;;;;;;25.53;nan;-24524.72;4935588;29;20171;-77
2022/08/21 09:29:21;;;;;;;7.28;4.28;;;;;;;25.41;nan;-24521.41;4936903;29;20270;-79
2022/08/21 09:31:47;;;;;;;5.07;3.13;;;;;;;25.36;nan;-24520.03;4935341;29;20175;-77
2022/08/21 09:34:25;;;;;;;6.68;3.70;;;;;;;24.87;nan;-24506.56;4935676;29;20599;-77
2022/08/21 09:36:51;;;;;;;9.40;4.57;;;;;;;24.43;nan;-24494.69;4936803;29;20205;-78
2022/08/21 09:39:31;;;;;;;9.05;4.57;;;;;;;24.61;nan;-24499.66;4936751;29;20175;-78
2022/08/21 09:42:05;;;;;;;7.53;4.57;;;;;;;24.35;nan;-24492.50;4935683;29;20210;-78
2022/08/21 09:44:33;;;;;;;8.38;4.43;;;;;;;24.44;nan;-24494.84;4943354;29;20665;-78
2022/08/21 09:46:59;;;;;;;7.80;4.30;;;;;;;23.82;nan;-24477.88;4919368;29;20190;-78
2022/08/21 09:49:33;;;;;;;10.52;5.20;;;;;;;24.17;nan;-24487.69;4936386;29;20177;-77
2022/08/21 09:51:59;;;;;;;6.18;3.90;;;;;;;23.83;nan;-24478.16;4915936;29;20247;-77
2022/08/21 09:54:35;;;;;;;6.03;4.00;;;;;;;24.20;nan;-24488.50;4917821;29;20214;-78
2022/08/21 10:00:11;;;;;;;6.13;4.22;;;;;;;24.89;nan;-24507.09;4917668;29;20215;-78
2022/08/21 10:02:36;;;;;;;7.65;3.90;;;;;;;24.96;nan;-24509.03;4900653;29;20566;-79
2022/08/21 10:05:17;;;;;;;5.40;3.53;;;;;;;25.47;nan;-24522.94;4918228;29;20183;-78
2022/08/21 10:07:43;;;;;;;8.35;4.38;;;;;;;25.34;nan;-24519.50;4919933;29;20186;-78
2022/08/21 10:10:16;;;;;;;6.40;4.15;;;;;;;25.10;nan;-24512.75;4935033;29;20186;-78
2022/08/21 10:13:14;;;;;;;8.93;4.25;;;;;;;25.36;nan;-24519.91;4930290;29;20263;-78
2022/08/21 10:15:40;;;;;;;9.18;5.25;;;;;;;25.24;nan;-24516.75;4926433;29;20247;-77
2022/08/21 10:18:19;;;;;;;7.82;4.35;;;;;;;24.98;nan;-24509.59;4918768;29;20187;-78
2022/08/21 10:21:17;;;;;;;8.82;4.13;;;;;;;24.87;nan;-24506.56;4935915;29;20179;-78
2022/08/21 10:23:51;;;;;;;9.20;4.13;;;;;;;24.71;nan;-24502.28;4922734;29;20204;-78
2022/08/21 10:26:31;;;;;;;8.45;4.40;;;;;;;25.07;nan;-24512.06;4951875;29;20249;-78
2022/08/21 10:29:08;;;;;;;7.97;3.85;;;;;;;24.92;nan;-24507.94;4933656;29;20186;-78
2022/08/21 10:31:51;;;;;;;7.15;3.72;;;;;;;25.03;nan;-24511.09;4936103;29;20209;-78
2022/08/21 10:34:38;;;;;;;7.13;4.35;;;;;;;24.90;nan;-24507.53;4935976;29;20175;-78
2022/08/21 10:38:01;;;;;;;9.23;4.30;;;;;;;24.93;nan;-24508.22;4936502;29;20285;-77
2022/08/21 10:40:38;;;;;;;9.18;4.50;;;;;;;24.48;nan;-24496.09;4871364;29;20199;-77
2022/08/21 10:43:34;;;;;;;8.32;4.68;;;;;;;24.56;nan;-24498.28;4873801;29;20251;-77
2022/08/21 10:46:15;;;;;;;8.82;4.57;;;;;;;24.50;nan;-24496.63;4935358;29;20285;-78
2022/08/21 10:48:50;;;;;;;7.28;4.50;;;;;;;24.58;nan;-24498.69;4920950;29;20190;-78
2022/08/21 10:51:21;;;;;;;9.07;5.57;;;;;;;24.44;nan;-24494.84;4936246;29;20162;-78
2022/08/21 10:54:08;;;;;;;9.98;5.82;;;;;;;24.22;nan;-24488.91;4933586;29;20238;-79
2022/08/21 10:56:38;;;;;;;11.60;5.20;;;;;;;24.45;nan;-24495.13;4935311;29;20200;-79
2022/08/21 10:59:09;;;;;;;10.45;5.20;;;;;;;24.30;nan;-24490.97;4918991;29;20576;-78
2022/08/21 11:01:58;;;;;;;8.02;4.70;;;;;;;24.71;nan;-24502.28;4937018;29;20294;-79
2022/08/21 11:04:32;;;;;;;7.57;4.88;;;;;;;24.69;nan;-24501.59;4936239;29;20193;-80
2022/08/21 11:07:06;;;;;;;10.27;5.13;;;;;;;24.15;nan;-24486.97;4936425;29;20646;-78
2022/08/21 11:09:32;;;;;;;9.80;4.85;;;;;;;24.76;nan;-24503.53;4936428;29;20181;-79
2022/08/21 11:12:16;;;;;;;8.93;4.53;;;;;;;24.70;nan;-24502.00;4918632;29;20270;-78
2022/08/21 11:14:53;;;;;;;9.18;4.70;;;;;;;24.91;nan;-24507.66;4935490;29;20197;-79
2022/08/21 11:17:28;;;;;;;10.07;4.43;;;;;;;25.20;nan;-24515.63;4936555;29;20700;-79
2022/08/21 11:20:05;;;;;;;12.90;4.90;;;;;;;25.34;nan;-24519.50;4935966;29;20170;-79
2022/08/21 11:22:45;;;;;;;7.38;4.13;;;;;;;25.33;nan;-24519.22;4950560;29;20234;-79
2022/08/21 11:25:15;;;;;;;7.22;4.05;;;;;;;25.69;nan;-24528.84;4950144;29;20724;-79
2022/08/21 11:27:47;;;;;;;6.90;3.92;;;;;;;25.46;nan;-24522.78;4949934;29;20183;-79
2022/08/21 11:30:13;;;;;;;8.20;4.50;;;;;;;25.46;nan;-24522.66;4918428;29;20170;-78
2022/08/21 11:33:04;;;;;;;7.00;4.43;;;;;;;25.77;nan;-24531.19;4916195;29;20204;-79
2022/08/21 11:35:29;;;;;;;13.57;4.20;;;;;;;25.57;nan;-24525.56;4932662;29;20661;-78
2022/08/21 11:38:00;;;;;;;7.70;3.97;;;;;;;25.64;nan;-24527.47;4949569;29;20214;-78
2022/08/21 11:40:53;;;;;;;10.02;4.57;;;;;;;25.70;nan;-24529.25;4952188;29;20183;-79
2022/08/21 11:43:37;;;;;;;6.53;3.72;;;;;;;25.64;nan;-24527.47;4936718;29;20241;-77
2022/08/21 11:46:11;;;;;;;7.05;4.07;;;;;;;25.81;nan;-24532.28;4937489;29;20547;-78
2022/08/21 11:49:00;;;;;;;6.72;3.95;;;;;;;25.51;nan;-24524.03;4957893;29;20256;-78
2022/08/21 11:51:45;;;;;;;7.32;4.10;;;;;;;25.45;nan;-24522.38;4919330;29;20198;-78
2022/08/21 11:54:28;;;;;;;8.95;4.53;;;;;;;25.77;nan;-24531.06;4939583;29;20182;-78